createdAt,value
2018-09-13T00:02:39.275Z,4.1
2018-09-13T00:07:41.426Z,7.8
2018-09-13T00:12:43.740Z,6.3
2018-09-13T00:17:46.004Z,3.9
2018-09-13T00:22:48.338Z,5.7
2018-09-13T00:27:50.692Z,4.6
2018-09-13T00:32:52.914Z,4.1
2018-09-13T00:37:55.179Z,5.9
2018-09-13T00:42:57.520Z,4.4
2018-09-13T00:47:59.749Z,5.3
2018-09-13T00:53:02.102Z,5.1
2018-09-13T00:58:04.455Z,6
2018-09-13T01:03:06.737Z,4
2018-09-13T01:08:08.967Z,4.8
2018-09-13T01:13:11.340Z,4.6
2018-09-13T01:18:13.527Z,5.7
2018-09-13T01:23:15.859Z,3.5
2018-09-13T01:28:18.173Z,4.3
2018-09-13T01:33:20.604Z,6.5
2018-09-13T01:38:22.797Z,3.8
2018-09-13T01:43:25.134Z,4.2
2018-09-13T01:48:27.394Z,5.9
2018-09-13T01:53:30.999Z,4.6
2018-09-13T01:58:31.992Z,4.3
2018-09-13T02:03:34.278Z,3.7
2018-09-13T02:08:36.662Z,2.9
2018-09-13T02:13:38.913Z,3.5
2018-09-13T02:18:41.212Z,3.5
2018-09-13T02:23:43.377Z,1.9
2018-09-13T02:28:45.655Z,2.8
2018-09-13T02:33:48.121Z,4
2018-09-13T02:38:50.313Z,3.6
2018-09-13T02:43:52.593Z,3.5
2018-09-13T02:48:54.769Z,3.4
2018-09-13T02:53:57.178Z,4
2018-09-13T02:58:59.487Z,3.6
2018-09-13T03:04:01.724Z,1.8
2018-09-13T03:09:04.009Z,3.8
2018-09-13T03:14:06.427Z,2.9
2018-09-13T03:19:08.592Z,3.2
2018-09-13T03:24:10.892Z,4.3
2018-09-13T03:29:13.220Z,3.6
2018-09-13T03:34:15.524Z,3.8
2018-09-13T03:39:17.722Z,3.6
2018-09-13T03:44:20.107Z,4.3
2018-09-13T03:49:22.322Z,2.5
2018-09-13T03:54:24.705Z,4.4
2018-09-13T03:59:27.022Z,2.9
2018-09-13T04:04:29.213Z,3.1
2018-09-13T04:09:31.619Z,3.2
2018-09-13T04:14:33.953Z,3
2018-09-13T04:19:36.080Z,3.2
2018-09-13T04:24:38.440Z,4.3
2018-09-13T04:29:40.777Z,3.2
2018-09-13T04:34:43.087Z,1.4
2018-09-13T04:39:45.406Z,2.1
2018-09-13T04:44:47.641Z,2.5
2018-09-13T04:49:49.901Z,3.4
2018-09-13T04:54:52.301Z,1.9
2018-09-13T04:59:54.569Z,3.3
2018-09-13T05:04:56.866Z,3.2
2018-09-13T05:09:59.040Z,2.9
2018-09-13T05:15:01.411Z,2.5
2018-09-13T05:20:03.651Z,2.3
2018-09-13T05:25:06.093Z,3.2
2018-09-13T05:30:08.264Z,3.4
2018-09-13T05:35:10.739Z,2.7
2018-09-13T05:40:12.938Z,2.8
2018-09-13T05:45:15.174Z,2.5
2018-09-13T05:50:17.453Z,2.2
2018-09-13T05:55:19.735Z,4.1
2018-09-13T06:00:22.037Z,3.1
2018-09-13T06:05:24.358Z,3
2018-09-13T06:10:26.689Z,1.1
2018-09-13T06:15:28.916Z,2.9
2018-09-13T06:20:31.363Z,4.5
2018-09-13T06:25:33.573Z,2.1
2018-09-13T06:30:35.878Z,2.9
2018-09-13T06:35:38.122Z,2.2
2018-09-13T06:40:40.379Z,2.1
2018-09-13T06:45:42.812Z,2.5
2018-09-13T06:50:44.957Z,2.7
2018-09-13T06:55:47.276Z,3.1
2018-09-13T07:00:49.659Z,2.9
2018-09-13T07:05:51.812Z,3.9
2018-09-13T07:10:54.204Z,2.5
2018-09-13T07:15:56.563Z,4.1
2018-09-13T07:20:58.787Z,2.5
2018-09-13T07:26:01.072Z,3.6
2018-09-13T07:31:03.352Z,2.7
2018-09-13T07:36:05.657Z,3.1
2018-09-13T07:41:07.911Z,1.2
2018-09-13T07:46:10.219Z,2.2
2018-09-13T07:51:12.562Z,4.4
2018-09-13T07:56:14.877Z,4.4
2018-09-13T08:01:17.103Z,2.4
2018-09-13T08:06:19.379Z,2.9
2018-09-13T08:11:21.649Z,2.9
2018-09-13T08:16:24.137Z,3
2018-09-13T08:21:26.528Z,3.2
2018-09-13T08:26:28.656Z,3.2
2018-09-13T08:31:30.884Z,3.2
2018-09-13T08:36:33.159Z,2.1
2018-09-13T08:41:35.493Z,1.6
2018-09-13T08:46:37.760Z,2.4
2018-09-13T08:51:40.000Z,2
2018-09-13T08:56:42.417Z,3.4
2018-09-13T09:01:44.563Z,3.1
2018-09-13T09:06:46.906Z,2.7
2018-09-13T09:11:49.217Z,1.3
2018-09-13T09:16:51.590Z,1.6
2018-09-13T09:21:53.759Z,1.8
2018-09-13T09:26:56.046Z,3
2018-09-13T09:31:58.305Z,2.6
2018-09-13T09:37:00.581Z,1.2
2018-09-13T09:42:03.040Z,2
2018-09-13T09:47:05.267Z,2.6
2018-09-13T09:52:07.717Z,1.4
2018-09-13T09:57:09.889Z,0.7
2018-09-13T10:02:12.241Z,1.2
2018-09-13T10:07:14.451Z,1.7
2018-09-13T10:12:16.737Z,1.8
2018-09-13T10:17:19.084Z,1.5
2018-09-13T10:22:21.322Z,2.3
2018-09-13T10:27:23.606Z,0.9
2018-09-13T10:32:25.928Z,1.9
2018-09-13T10:37:28.195Z,1
2018-09-13T10:42:30.447Z,1.6
2018-09-13T10:47:32.788Z,1.2
2018-09-13T10:52:35.310Z,2.1
2018-09-13T10:57:37.437Z,1.6
2018-09-13T11:02:39.635Z,1.3
2018-09-13T11:07:41.970Z,0.8
2018-09-13T11:12:44.227Z,0.8
2018-09-13T11:17:46.548Z,1.1
2018-09-13T11:22:48.843Z,1.2
2018-09-13T11:27:51.140Z,1.2
2018-09-13T11:32:53.357Z,1.1
2018-09-13T11:37:55.741Z,1.5
2018-09-13T11:42:58.080Z,1.2
2018-09-13T11:48:00.310Z,0.9
2018-09-13T11:53:02.560Z,2
2018-09-13T11:58:04.924Z,1.2
2018-09-13T12:03:07.258Z,1
2018-09-13T12:13:11.731Z,1.4
2018-09-13T12:18:14.249Z,1.1
2018-09-13T12:23:16.363Z,1.7
2018-09-13T12:28:18.785Z,1.7
2018-09-13T12:33:21.073Z,1.6
2018-09-13T12:38:23.398Z,1
2018-09-13T12:43:25.551Z,0.3
2018-09-13T12:48:27.778Z,0.9
2018-09-13T12:53:30.164Z,0.2
2018-09-13T12:58:32.500Z,1.3
2018-09-13T13:03:34.726Z,0.2
2018-09-13T13:08:37.118Z,0.3
2018-09-13T13:13:39.368Z,1.1
2018-09-13T13:18:41.640Z,0.7
2018-09-13T13:23:43.884Z,0.8
2018-09-13T13:28:46.266Z,0.1
2018-09-13T13:33:48.522Z,0.7
2018-09-13T13:38:50.770Z,0.5
2018-09-13T13:43:53.116Z,1.1
2018-09-13T13:48:55.402Z,2.2
2018-09-13T13:53:57.834Z,1.1
2018-09-13T13:59:00.082Z,0.5
2018-09-13T14:04:02.246Z,0.5
2018-09-13T14:09:05.577Z,0.9
2018-09-13T14:14:08.552Z,0.7
2018-09-13T14:19:09.273Z,0.7
2018-09-13T14:24:11.400Z,1
2018-09-13T14:29:13.736Z,1.3
2018-09-13T14:34:16.066Z,0.9
2018-09-13T14:39:18.307Z,1.2
2018-09-13T14:44:20.586Z,0.9
2018-09-13T14:49:22.870Z,1
2018-09-13T14:54:25.479Z,1.1
2018-09-13T14:59:28.663Z,0.9
2018-09-13T15:04:29.791Z,1.1
2018-09-13T15:09:32.142Z,0.8
2018-09-13T15:14:34.347Z,0.9
2018-09-13T15:19:36.847Z,2.4
2018-09-13T15:24:39.047Z,1.4
2018-09-13T15:29:41.329Z,1.4
2018-09-13T15:39:45.946Z,1
2018-09-13T15:44:49.528Z,0.8
2018-09-13T15:49:50.440Z,0.9
2018-09-13T15:54:52.811Z,0.9
2018-09-13T15:59:55.040Z,0.8
2018-09-13T16:04:57.352Z,0.9
2018-09-13T16:09:59.691Z,0.7
2018-09-13T16:15:03.115Z,2.3
2018-09-13T16:20:04.365Z,2.8
2018-09-13T16:25:06.668Z,1.6
2018-09-13T16:30:08.806Z,0.6
2018-09-13T16:35:11.230Z,1.5
2018-09-13T16:40:13.424Z,1.1
2018-09-13T16:45:15.704Z,1.6
2018-09-13T16:50:17.930Z,1.1
2018-09-13T16:55:20.317Z,1
2018-09-13T17:00:22.632Z,1.1
2018-09-13T17:05:24.784Z,0.9
2018-09-13T17:10:27.264Z,1.7
2018-09-13T17:15:29.550Z,0.5
2018-09-13T17:20:32.075Z,0.9
2018-09-13T17:25:34.072Z,3
2018-09-13T17:30:37.608Z,0.5
2018-09-13T17:35:38.886Z,1.4
2018-09-13T17:40:40.965Z,1
2018-09-13T17:45:43.352Z,1
2018-09-13T17:50:45.553Z,0.9
2018-09-13T17:55:47.887Z,1.2
2018-09-13T18:00:50.072Z,0.9
2018-09-13T18:05:52.492Z,0.6
2018-09-13T18:10:54.703Z,1.1
2018-09-13T18:15:56.926Z,0.6
2018-09-13T18:21:01.497Z,1.5
2018-09-13T18:26:01.629Z,1.1
2018-09-13T18:31:03.859Z,0.3
2018-09-13T18:36:06.144Z,1.8
2018-09-13T18:41:08.572Z,1.5
2018-09-13T18:46:10.936Z,1.2
2018-09-13T18:51:13.055Z,0.4
2018-09-13T18:56:15.499Z,2.4
2018-09-13T19:01:17.628Z,2.4
2018-09-13T19:06:19.959Z,1.6
2018-09-13T19:11:22.233Z,1.1
2018-09-13T19:16:24.551Z,2.6
2018-09-13T19:21:26.861Z,1.6
2018-09-13T19:26:29.039Z,1.7
2018-09-13T19:31:31.419Z,1.2
2018-09-13T19:36:33.675Z,0.8
2018-09-13T19:41:36.028Z,1.4
2018-09-13T19:46:38.301Z,3.3
2018-09-13T19:51:40.626Z,1.4
2018-09-13T19:56:42.961Z,1.7
2018-09-13T20:01:45.142Z,1.7
2018-09-13T20:06:47.540Z,1.2
2018-09-13T20:11:49.963Z,0.8
2018-09-13T20:16:52.080Z,1.7
2018-09-13T20:21:54.354Z,1.6
2018-09-13T20:26:56.676Z,1
2018-09-13T20:31:59.006Z,2
2018-09-13T20:37:01.137Z,2
2018-09-13T20:42:03.621Z,1.8
2018-09-13T20:47:05.949Z,2.6
2018-09-13T20:52:08.126Z,1.3
2018-09-13T20:57:10.376Z,1.5
2018-09-13T21:02:12.721Z,1.6
2018-09-13T21:07:14.982Z,2.1
2018-09-13T21:12:17.409Z,1.2
2018-09-13T21:17:19.780Z,2.1
2018-09-13T21:22:21.988Z,1.6
2018-09-13T21:27:24.129Z,3.6
2018-09-13T21:32:26.396Z,2.5
2018-09-13T21:37:28.932Z,2
2018-09-13T21:42:31.028Z,2.7
2018-09-13T21:47:33.288Z,1.7
2018-09-13T21:52:35.685Z,1.3
2018-09-13T21:57:37.924Z,2.7
2018-09-13T22:02:40.237Z,2.2
2018-09-13T22:07:42.767Z,3
2018-09-13T22:12:44.993Z,2.6
2018-09-13T22:17:47.058Z,1.7
2018-09-13T22:22:49.466Z,2
2018-09-13T22:27:51.744Z,1.8
2018-09-13T22:32:55.422Z,2.2
2018-09-13T22:37:56.204Z,2.3
2018-09-13T22:42:58.530Z,2.3
2018-09-13T22:48:01.200Z,4.5
2018-09-13T22:53:03.178Z,2.8
2018-09-13T22:58:05.386Z,1.8
2018-09-13T23:03:07.739Z,3.3
2018-09-13T23:08:10.048Z,2.5
2018-09-13T23:13:12.330Z,2.2
2018-09-13T23:18:14.735Z,1.8
2018-09-13T23:23:16.888Z,3.1
2018-09-13T23:28:19.228Z,3.3
2018-09-13T23:33:21.602Z,2.7
2018-09-13T23:38:23.880Z,2.8
2018-09-13T23:43:26.085Z,3
2018-09-13T23:48:28.428Z,4.1
2018-09-13T23:53:30.740Z,3.6
2018-09-13T23:58:33.057Z,2.1
